Home   Weather   USA   DeLand   Past weeks
Flag for USA

Past Weather in DeLand, Florida, USA — Yesterday and Last 2 Weeks

Currently: 68 °F. Clear. (Weather station: Deland Muni Sidney H Taylor Fld, USA). See more current weather

Past Weather in DeLand — Graph

°F

DeLand Temperature Yesterday

Maximum temperature yesterday: 85 °F (at 2:55 pm)
Minimum temperature yesterday: 58 °F (at 6:55 am)
Average temperature yesterday: 72 °F

High & Low Weather Summary for the Past Weeks

 TemperatureHumidityPressure
High85 °F (Apr 17, 2:55 pm)95% (Apr 6, 6:15 am)30.30 "Hg (Apr 6, 6:15 am)
Low48 °F (Apr 7, 7:15 am)22% (Apr 5, 2:55 pm)29.64 "Hg (Apr 3, 3:15 pm)
Average68 °F65%30.05 "Hg
* Reported Apr 2 11:15 pm — Apr 17 11:15 pm, DeLand. Weather by CustomWeather, © 2024

Note: Actual official high and low records may vary slightly from our data, if they occured in-between our weather recording intervals... More about our weather records

DeLand Weather History for the Previous 24 Hours

Scroll right to see more
 ConditionsComfort  
Time TempWeatherWind HumidityBarometerVisibility
11:15 pm
Wed, Apr 17
67 °FClear.5 mph83%30.14 "Hg10 mi
10:55 pm67 °FClear.6 mph81%30.14 "Hg10 mi
10:15 pm69 °FClear.6 mph77%30.15 "Hg10 mi
9:55 pm69 °FClear.6 mph76%30.15 "Hg10 mi
9:15 pm71 °FClear.7 mph71%30.14 "Hg10 mi
8:55 pm72 °FClear.7 mph69%30.13 "Hg10 mi
8:15 pm74 °FClear.7 mph64%30.12 "Hg10 mi
7:55 pm75 °FClear.8 mph59%30.12 "Hg10 mi
7:35 pm77 °FSunny.9 mph55%30.11 "Hg10 mi
7:15 pm79 °FSunny.9 mph53%30.10 "Hg10 mi
6:55 pm80 °FSunny.12 mph54%30.09 "Hg10 mi
6:35 pm82 °FSunny.10 mph49%30.09 "Hg10 mi
6:15 pm82 °FSunny.10 mph51%30.10 "Hg10 mi
5:55 pm83 °FSunny.10 mph48%30.10 "Hg10 mi
5:15 pm84 °FSunny.8 mph48%30.09 "Hg10 mi
4:35 pm85 °FSunny.8 mph46%30.10 "Hg10 mi
3:55 pm85 °FSunny.12 mph45%30.10 "Hg10 mi
3:15 pm85 °FSunny.8 mph42%30.12 "Hg10 mi
2:55 pm85 °FSunny.8 mph41%30.12 "Hg10 mi
2:15 pm84 °FSunny.9 mph42%30.13 "Hg7 mi
1:55 pm84 °FSunny.12 mph40%30.14 "Hg10 mi
1:15 pm82 °FSunny.12 mph48%30.16 "Hg10 mi
12:55 pm82 °FSunny.8 mph48%30.16 "Hg10 mi
12:15 pm80 °FScattered clouds.7 mph50%30.17 "Hg10 mi
11:55 am79 °FScattered clouds.7 mph57%30.18 "Hg10 mi
11:15 am78 °FScattered clouds.9 mph57%30.19 "Hg10 mi
10:55 am78 °FScattered clouds.10 mph60%30.19 "Hg10 mi
10:35 am77 °FScattered clouds.8 mph62%30.19 "Hg10 mi
10:15 am76 °FSunny.12 mph63%30.19 "Hg10 mi
9:15 am72 °FSunny.8 mph75%30.19 "Hg10 mi
8:55 am70 °FSunny.7 mph80%30.19 "Hg10 mi
8:15 am64 °FSunny.No wind91%30.18 "Hg10 mi
7:55 am61 °FSunny.No wind90%30.18 "Hg10 mi
6:55 am58 °FClear.No wind91%30.17 "Hg10 mi
6:15 am60 °FClear.No wind92%30.16 "Hg10 mi
5:55 am58 °FClear.No wind91%30.15 "Hg10 mi
5:35 am58 °FClear.No wind92%30.15 "Hg10 mi
5:15 am58 °FClear.No wind91%30.15 "Hg10 mi
4:35 am58 °FClear.No wind91%30.14 "Hg10 mi
3:55 am60 °FClear.No wind92%30.15 "Hg10 mi
3:15 am59 °FClear.No wind92%30.14 "Hg10 mi
2:55 am60 °FClear.No wind92%30.15 "Hg10 mi
2:15 am61 °FClear.No wind93%30.16 "Hg10 mi
1:55 am61 °FClear.No wind90%30.17 "Hg10 mi
1:15 am62 °FClear.No wind92%30.17 "Hg10 mi
12:55 am63 °FClear.No wind91%30.17 "Hg10 mi
12:15 am63 °FClear.3 mph89%30.18 "Hg10 mi
Weather by CustomWeather, © 2024

See weather overview